createdAt,value
2022-08-28T00:00:17.961Z,977.96
2022-08-28T00:01:17.896Z,978.01
2022-08-28T00:02:17.867Z,977.97
2022-08-28T00:03:17.882Z,977.97
2022-08-28T00:04:17.916Z,977.94
2022-08-28T00:05:17.817Z,977.94
2022-08-28T00:06:17.828Z,977.97
2022-08-28T00:07:18.828Z,977.92
2022-08-28T00:08:17.818Z,977.94
2022-08-28T00:09:17.828Z,977.91
2022-08-28T00:10:17.749Z,977.97
2022-08-28T00:11:17.759Z,977.95
2022-08-28T00:12:17.710Z,977.99
2022-08-28T00:13:17.750Z,977.96
2022-08-28T00:14:18.772Z,977.92
2022-08-28T00:15:17.681Z,977.90
2022-08-28T00:16:17.727Z,977.97
2022-08-28T00:17:17.771Z,978.00
2022-08-28T00:18:17.679Z,977.93
2022-08-28T00:19:38.998Z,977.96
2022-08-28T00:20:17.691Z,977.98
2022-08-28T00:21:17.742Z,977.96
2022-08-28T00:22:17.703Z,977.95
2022-08-28T00:23:17.616Z,978.00
2022-08-28T00:25:27.792Z,977.99
2022-08-28T00:26:27.891Z,978.01
2022-08-28T00:27:27.773Z,977.98
2022-08-28T00:28:27.773Z,978.01
2022-08-28T00:29:27.792Z,977.98
2022-08-28T00:30:29.801Z,977.94
2022-08-28T00:31:27.914Z,977.99
2022-08-28T00:32:27.804Z,978.00
2022-08-28T00:33:27.719Z,977.96
2022-08-28T00:34:32.033Z,977.97
2022-08-28T00:35:28.756Z,977.91
2022-08-28T00:36:27.767Z,977.99
2022-08-28T00:37:27.745Z,977.98
2022-08-28T00:38:27.648Z,977.88
2022-08-28T00:39:27.659Z,977.97
2022-08-28T00:40:28.513Z,977.95
2022-08-28T00:41:27.615Z,977.96
2022-08-28T00:42:27.566Z,977.98
2022-08-28T00:43:27.556Z,977.96
2022-08-28T00:44:27.598Z,977.95
2022-08-28T00:45:27.587Z,977.98
2022-08-28T00:46:27.579Z,977.94
2022-08-28T00:47:28.529Z,977.96
2022-08-28T00:48:27.508Z,978.00
2022-08-28T00:49:27.506Z,978.00
2022-08-28T00:50:27.529Z,977.97
2022-08-28T00:51:27.468Z,977.95
2022-08-28T00:52:27.538Z,977.98
2022-08-28T00:53:32.654Z,977.99
2022-08-28T00:54:28.418Z,978.01
2022-08-28T00:55:27.451Z,977.99
2022-08-28T00:56:27.409Z,978.05
2022-08-28T00:57:27.479Z,978.05
2022-08-28T00:58:27.482Z,977.98
2022-08-28T00:59:28.402Z,977.97
2022-08-28T01:00:27.354Z,977.97
2022-08-28T01:01:27.472Z,978.00
2022-08-28T01:02:27.527Z,977.98
2022-08-28T01:03:27.428Z,977.98
2022-08-28T01:04:27.314Z,977.98
2022-08-28T01:05:27.311Z,977.95
2022-08-28T01:06:27.362Z,977.94
2022-08-28T01:07:27.332Z,977.96
2022-08-28T01:08:30.363Z,977.98
2022-08-28T01:09:27.240Z,977.97
2022-08-28T01:10:50.232Z,977.98
2022-08-28T01:11:27.252Z,977.97
2022-08-28T01:12:27.264Z,978.03
2022-08-28T01:13:27.288Z,978.01
2022-08-28T01:14:27.184Z,978.05
2022-08-28T01:15:27.155Z,978.02
2022-08-28T01:16:27.144Z,978.04
2022-08-28T01:17:28.236Z,978.08
2022-08-28T01:18:27.227Z,978.05
2022-08-28T01:19:27.115Z,978.05
2022-08-28T01:20:27.106Z,978.01
2022-08-28T01:21:27.095Z,977.99
2022-08-28T01:22:27.057Z,977.95
2022-08-28T01:23:27.137Z,978.04
2022-08-28T01:24:34.554Z,978.04
2022-08-28T01:25:27.020Z,978.04
2022-08-28T01:26:28.019Z,978.05
2022-08-28T01:27:26.993Z,978.04
2022-08-28T01:28:26.985Z,978.10
2022-08-28T01:29:26.970Z,978.01
2022-08-28T01:30:26.953Z,978.03
2022-08-28T01:31:28.018Z,978.00
2022-08-28T01:32:26.942Z,978.00
2022-08-28T01:33:27.948Z,978.06
2022-08-28T01:34:26.902Z,978.00
2022-08-28T01:35:26.892Z,978.12
2022-08-28T01:36:26.892Z,978.07
2022-08-28T01:37:26.864Z,977.98
2022-08-28T01:38:27.114Z,978.08
2022-08-28T01:39:26.840Z,978.11
2022-08-28T01:40:26.857Z,978.08
2022-08-28T01:41:27.825Z,978.09
2022-08-28T01:42:26.818Z,978.10
2022-08-28T01:43:26.794Z,978.07
2022-08-28T01:44:26.784Z,978.03
2022-08-28T01:45:26.755Z,978.06
2022-08-28T01:46:26.808Z,978.02
2022-08-28T01:47:26.756Z,978.03
2022-08-28T01:48:26.726Z,978.06
2022-08-28T01:49:26.715Z,978.02
2022-08-28T01:50:27.696Z,978.03
2022-08-28T01:51:26.690Z,977.95
2022-08-28T01:52:27.689Z,978.04
2022-08-28T01:53:30.736Z,977.96
2022-08-28T01:54:27.649Z,977.99
2022-08-28T01:55:47.648Z,977.99
2022-08-28T01:56:26.605Z,978.02
2022-08-28T01:57:26.606Z,977.94
2022-08-28T01:58:26.596Z,977.97
2022-08-28T01:59:26.598Z,977.93
2022-08-28T02:00:26.575Z,978.03
2022-08-28T02:01:26.597Z,978.03
2022-08-28T02:02:27.538Z,978.03
2022-08-28T02:03:26.551Z,977.94
2022-08-28T02:04:31.864Z,978.03
2022-08-28T02:05:27.508Z,978.00
2022-08-28T02:06:26.508Z,978.01
2022-08-28T02:07:26.470Z,978.01
2022-08-28T02:08:26.471Z,978.09
2022-08-28T02:09:26.463Z,977.99
2022-08-28T02:10:26.449Z,977.99
2022-08-28T02:11:26.440Z,977.96
2022-08-28T02:12:28.451Z,977.98
2022-08-28T02:13:26.407Z,977.99
2022-08-28T02:14:26.401Z,978.06
2022-08-28T02:15:26.437Z,977.98
2022-08-28T02:16:26.380Z,978.03
2022-08-28T02:17:26.352Z,978.06
2022-08-28T02:18:26.338Z,978.02
2022-08-28T02:19:26.322Z,978.00
2022-08-28T02:20:26.301Z,978.02
2022-08-28T02:21:26.313Z,978.03
2022-08-28T02:22:26.281Z,978.06
2022-08-28T02:23:26.273Z,978.05
2022-08-28T02:24:26.263Z,978.09
2022-08-28T02:25:26.244Z,978.09
2022-08-28T02:26:26.233Z,978.14
2022-08-28T02:27:27.223Z,978.10
2022-08-28T02:28:26.200Z,978.09
2022-08-28T02:29:26.194Z,978.09
2022-08-28T02:30:26.170Z,978.11
2022-08-28T02:31:26.233Z,978.04
2022-08-28T02:32:26.147Z,978.03
2022-08-28T02:33:26.145Z,978.06
2022-08-28T02:34:27.128Z,978.10
2022-08-28T02:35:27.115Z,978.08
2022-08-28T02:36:26.105Z,978.07
2022-08-28T02:37:26.090Z,978.03
2022-08-28T02:38:26.075Z,978.11
2022-08-28T02:39:26.055Z,978.10
2022-08-28T02:40:26.112Z,978.08
2022-08-28T02:41:27.060Z,978.04
2022-08-28T02:42:26.017Z,978.07
2022-08-28T02:43:26.034Z,978.14
2022-08-28T02:44:26.007Z,978.13
2022-08-28T02:45:25.998Z,978.08
2022-08-28T02:46:26.023Z,978.14
2022-08-28T02:47:25.979Z,978.03
2022-08-28T02:48:25.937Z,978.04
2022-08-28T02:49:25.938Z,978.09
2022-08-28T02:50:27.919Z,978.10
2022-08-28T02:51:25.922Z,978.06
2022-08-28T02:52:25.900Z,978.05
2022-08-28T02:53:25.879Z,978.03
2022-08-28T02:54:25.875Z,977.97
2022-08-28T02:55:25.865Z,978.05
2022-08-28T02:56:25.870Z,978.04
2022-08-28T02:57:25.851Z,978.08
2022-08-28T02:58:25.823Z,978.01
2022-08-28T02:59:25.820Z,978.07
2022-08-28T03:00:25.790Z,978.00
2022-08-28T03:01:25.851Z,978.03
2022-08-28T03:02:25.826Z,978.06
2022-08-28T03:03:25.760Z,978.05
2022-08-28T03:04:25.737Z,978.08
2022-08-28T03:05:25.722Z,978.11
2022-08-28T03:06:25.722Z,978.02
2022-08-28T03:07:25.713Z,978.04
2022-08-28T03:08:27.290Z,978.08
2022-08-28T03:09:25.671Z,978.05
2022-08-28T03:10:25.664Z,978.04
2022-08-28T03:11:25.665Z,978.01
2022-08-28T03:12:25.643Z,978.04
2022-08-28T03:13:27.288Z,978.06
2022-08-28T03:14:25.612Z,978.06
2022-08-28T03:15:25.594Z,978.03
2022-08-28T03:16:25.720Z,978.08
2022-08-28T03:17:25.574Z,978.05
2022-08-28T03:18:25.657Z,978.05
2022-08-28T03:19:25.545Z,977.98
2022-08-28T03:20:25.647Z,978.01
2022-08-28T03:21:25.604Z,978.06
2022-08-28T03:22:25.509Z,978.02
2022-08-28T03:23:25.576Z,978.04
2022-08-28T03:24:25.577Z,978.04
2022-08-28T03:25:26.510Z,978.04
2022-08-28T03:26:25.487Z,978.06
2022-08-28T03:27:25.538Z,978.02
2022-08-28T03:28:25.540Z,978.00
2022-08-28T03:29:25.507Z,978.05
2022-08-28T03:30:25.625Z,978.04
2022-08-28T03:31:25.419Z,978.00
2022-08-28T03:32:26.438Z,978.07
2022-08-28T03:33:25.488Z,978.07
2022-08-28T03:34:26.369Z,978.08
2022-08-28T03:35:25.453Z,978.07
2022-08-28T03:36:25.349Z,978.08
2022-08-28T03:37:25.359Z,978.05
2022-08-28T03:38:25.917Z,978.04
2022-08-28T03:39:25.370Z,978.05
2022-08-28T03:40:25.535Z,978.09
2022-08-28T03:41:25.290Z,978.06
2022-08-28T03:42:25.300Z,978.11
2022-08-28T03:43:25.352Z,978.11
2022-08-28T03:44:25.311Z,978.09
2022-08-28T03:45:25.210Z,978.07
2022-08-28T03:46:25.263Z,978.13
2022-08-28T03:47:25.223Z,978.10
2022-08-28T03:48:25.273Z,978.09
2022-08-28T03:49:25.243Z,978.11
2022-08-28T04:03:52.687Z,978.20
2022-08-28T04:04:52.795Z,978.28
2022-08-28T04:05:52.654Z,978.27
2022-08-28T04:06:52.710Z,978.26
2022-08-28T04:07:52.725Z,978.29
2022-08-28T04:08:54.687Z,978.24
2022-08-28T04:09:54.667Z,978.34
2022-08-28T04:10:52.584Z,978.34
2022-08-28T04:11:52.616Z,978.35
2022-08-28T04:12:52.667Z,978.33
2022-08-28T04:13:52.648Z,978.34
2022-08-28T04:14:53.577Z,978.35
2022-08-28T04:15:52.534Z,978.31
2022-08-28T04:16:52.633Z,978.37
2022-08-28T04:17:52.559Z,978.39
2022-08-28T04:18:52.580Z,978.32
2022-08-28T04:19:52.579Z,978.45
2022-08-28T04:20:52.456Z,978.38
2022-08-28T04:21:52.469Z,978.35
2022-08-28T04:22:55.184Z,978.37
2022-08-28T04:23:52.420Z,978.36
2022-08-28T04:24:52.410Z,978.40
2022-08-28T04:25:52.394Z,978.41
2022-08-28T04:26:52.380Z,978.44
2022-08-28T04:27:52.399Z,978.43
2022-08-28T04:28:52.770Z,978.44
2022-08-28T04:29:52.450Z,978.40
2022-08-28T04:30:52.341Z,978.44
2022-08-28T04:33:02.563Z,978.42
2022-08-28T04:34:02.624Z,978.45
2022-08-28T04:35:02.615Z,978.41
2022-08-28T04:36:02.523Z,978.43
2022-08-28T04:37:02.525Z,978.44
2022-08-28T04:38:05.505Z,978.47
2022-08-28T04:39:02.547Z,978.46
2022-08-28T04:40:02.621Z,978.50
2022-08-28T04:41:02.566Z,978.45
2022-08-28T04:42:02.445Z,978.53
2022-08-28T04:43:02.496Z,978.46
2022-08-28T04:44:02.488Z,978.42
2022-08-28T04:45:02.489Z,978.47
2022-08-28T04:46:02.523Z,978.47
2022-08-28T04:47:02.373Z,978.45
2022-08-28T04:48:03.312Z,978.47
2022-08-28T04:49:03.438Z,978.46
2022-08-28T04:50:02.408Z,978.48
2022-08-28T04:51:02.299Z,978.51
2022-08-28T04:52:02.350Z,978.44
2022-08-28T04:53:02.299Z,978.48
2022-08-28T04:54:02.269Z,978.49
2022-08-28T04:55:03.358Z,978.50
2022-08-28T04:56:02.350Z,978.52
2022-08-28T04:57:02.233Z,978.49
2022-08-28T04:58:02.309Z,978.50
2022-08-28T04:59:02.280Z,978.56
2022-08-28T05:00:02.202Z,978.52
2022-08-28T05:01:02.193Z,978.54
2022-08-28T05:02:02.281Z,978.57
2022-08-28T05:03:02.242Z,978.52
2022-08-28T05:04:02.163Z,978.52
2022-08-28T05:05:02.191Z,978.59
2022-08-28T05:06:02.370Z,978.57
2022-08-28T05:07:02.211Z,978.58
2022-08-28T05:08:03.243Z,978.56
2022-08-28T05:09:02.127Z,978.57
2022-08-28T05:10:02.107Z,978.62
2022-08-28T05:11:02.101Z,978.57
2022-08-28T05:12:02.073Z,978.62
2022-08-28T05:13:02.141Z,978.58
2022-08-28T05:14:02.056Z,978.60
2022-08-28T05:15:02.136Z,978.62
2022-08-28T05:16:02.059Z,978.60
2022-08-28T05:17:01.999Z,978.61
2022-08-28T05:18:02.037Z,978.62
2022-08-28T05:19:03.436Z,978.57
2022-08-28T05:20:01.966Z,978.59
2022-08-28T05:21:01.968Z,978.67
2022-08-28T05:22:01.918Z,978.62
2022-08-28T05:23:01.918Z,978.67
2022-08-28T05:24:01.909Z,978.68
2022-08-28T05:25:01.908Z,978.65
2022-08-28T05:26:01.991Z,978.65
2022-08-28T05:27:01.897Z,978.65
2022-08-28T05:28:01.848Z,978.66
2022-08-28T05:29:01.945Z,978.72
2022-08-28T05:30:03.905Z,978.70
2022-08-28T05:31:01.900Z,978.70
2022-08-28T05:32:01.857Z,978.71
2022-08-28T05:33:01.770Z,978.77
2022-08-28T05:34:01.867Z,978.75
2022-08-28T05:35:01.751Z,978.77
2022-08-28T05:36:01.846Z,978.76
2022-08-28T05:37:01.842Z,978.78
2022-08-28T05:38:01.729Z,978.72
2022-08-28T05:39:01.783Z,978.72
2022-08-28T05:40:01.817Z,978.79
2022-08-28T05:41:02.724Z,978.78
2022-08-28T05:42:02.723Z,978.79
2022-08-28T05:43:01.702Z,978.75
2022-08-28T05:44:01.712Z,978.84
2022-08-28T05:45:01.736Z,978.78
2022-08-28T05:46:01.672Z,978.81
2022-08-28T05:47:01.663Z,978.84
2022-08-28T05:48:01.585Z,978.88
2022-08-28T05:49:01.596Z,978.84
2022-08-28T05:50:01.592Z,978.86
2022-08-28T05:51:01.701Z,978.86
2022-08-28T05:52:01.698Z,978.90
2022-08-28T05:53:01.596Z,978.85
2022-08-28T05:54:01.569Z,978.88
2022-08-28T05:55:01.519Z,978.87
2022-08-28T05:56:01.580Z,978.85
2022-08-28T05:57:01.601Z,978.91
2022-08-28T05:58:01.473Z,978.83
2022-08-28T05:59:01.447Z,978.96
2022-08-28T06:00:01.518Z,978.94
2022-08-28T06:01:01.504Z,978.93
2022-08-28T06:02:04.320Z,978.91
2022-08-28T06:03:01.388Z,978.93
2022-08-28T06:04:01.449Z,978.92
2022-08-28T06:05:02.341Z,978.90
2022-08-28T06:06:01.339Z,978.91
2022-08-28T06:07:01.349Z,978.86
2022-08-28T06:08:01.297Z,978.87
2022-08-28T06:09:02.308Z,978.90
2022-08-28T06:10:02.292Z,978.90
2022-08-28T06:11:01.279Z,978.83
2022-08-28T06:12:01.884Z,978.90
2022-08-28T06:13:01.239Z,978.86
2022-08-28T06:14:01.469Z,978.87
2022-08-28T06:15:01.210Z,978.91
2022-08-28T06:16:01.245Z,978.89
2022-08-28T06:17:01.190Z,978.93
2022-08-28T06:18:01.171Z,978.92
2022-08-28T06:19:01.162Z,978.93
2022-08-28T06:20:01.142Z,978.90
2022-08-28T06:21:01.132Z,978.96
2022-08-28T06:22:01.133Z,978.98
2022-08-28T06:23:02.112Z,979.00
2022-08-28T06:24:01.122Z,979.03
2022-08-28T06:25:01.084Z,979.07
2022-08-28T06:26:01.076Z,979.02
2022-08-28T06:27:01.068Z,979.05
2022-08-28T06:28:01.041Z,979.11
2022-08-28T06:29:01.036Z,979.09
2022-08-28T06:30:01.014Z,979.04
2022-08-28T06:31:18.358Z,979.05
2022-08-28T06:32:02.023Z,979.04
2022-08-28T06:33:00.972Z,979.07
2022-08-28T06:34:00.976Z,979.07
2022-08-28T06:35:00.968Z,979.10
2022-08-28T06:36:00.935Z,979.04
2022-08-28T06:37:00.938Z,979.07
2022-08-28T06:38:00.907Z,979.06
2022-08-28T06:39:00.916Z,979.06
2022-08-28T06:40:00.933Z,979.02
2022-08-28T06:41:00.877Z,979.02
2022-08-28T06:42:01.287Z,979.06
2022-08-28T06:43:00.857Z,979.07
2022-08-28T06:44:00.845Z,979.04
2022-08-28T06:45:00.807Z,979.11
2022-08-28T06:46:01.849Z,979.11
2022-08-28T06:47:00.793Z,979.10
2022-08-28T06:48:00.790Z,979.10
2022-08-28T06:49:00.778Z,979.12
2022-08-28T06:50:00.747Z,979.06
2022-08-28T06:51:01.750Z,979.07
2022-08-28T06:52:00.729Z,979.06
2022-08-28T06:53:00.741Z,979.11
2022-08-28T06:54:00.699Z,979.13
2022-08-28T06:55:01.680Z,979.10
2022-08-28T06:56:00.670Z,979.16
2022-08-28T06:57:00.668Z,979.11
2022-08-28T06:58:00.650Z,979.16
2022-08-28T06:59:00.636Z,979.15
2022-08-28T07:00:00.630Z,979.15
2022-08-28T07:01:02.962Z,979.18
2022-08-28T07:02:00.720Z,979.12
2022-08-28T07:03:00.658Z,979.17
2022-08-28T07:04:00.563Z,979.15
2022-08-28T07:05:00.569Z,979.19
2022-08-28T07:06:00.543Z,979.19
2022-08-28T07:07:00.533Z,979.20
2022-08-28T07:08:00.523Z,979.28
2022-08-28T07:09:00.495Z,979.21
2022-08-28T07:10:00.498Z,979.18
2022-08-28T07:11:00.482Z,979.20
2022-08-28T07:12:00.453Z,979.19
2022-08-28T07:13:00.454Z,979.21
2022-08-28T07:14:00.424Z,979.26
2022-08-28T07:15:00.435Z,979.22
2022-08-28T07:16:00.460Z,979.22
2022-08-28T07:17:00.394Z,979.31
2022-08-28T07:18:00.372Z,979.25
2022-08-28T07:19:00.366Z,979.29
2022-08-28T07:20:00.356Z,979.34
2022-08-28T07:21:00.344Z,979.26
2022-08-28T07:22:00.327Z,979.29
2022-08-28T07:23:00.306Z,979.27
2022-08-28T07:24:00.297Z,979.33
2022-08-28T07:25:00.296Z,979.33
2022-08-28T07:26:00.268Z,979.30
2022-08-28T07:27:01.260Z,979.31
2022-08-28T07:28:00.247Z,979.27
2022-08-28T07:29:10.436Z,979.31
2022-08-28T07:30:02.238Z,979.29
2022-08-28T07:31:00.263Z,979.31
2022-08-28T07:32:00.197Z,979.34
2022-08-28T07:33:00.201Z,979.33
2022-08-28T07:34:00.178Z,979.32
2022-08-28T07:35:00.189Z,979.35
2022-08-28T07:36:00.149Z,979.34
2022-08-28T07:37:00.129Z,979.34
2022-08-28T07:38:00.103Z,979.39
2022-08-28T07:39:00.110Z,979.38
2022-08-28T07:40:00.210Z,979.32
2022-08-28T07:41:00.091Z,979.41
2022-08-28T07:42:00.056Z,979.38
2022-08-28T07:43:00.063Z,979.42
2022-08-28T07:44:00.041Z,979.35
2022-08-28T07:45:00.041Z,979.40
2022-08-28T07:46:00.079Z,979.41
2022-08-28T07:46:59.992Z,979.42
2022-08-28T07:47:59.993Z,979.39
2022-08-28T07:48:59.984Z,979.42
2022-08-28T07:49:59.973Z,979.43
2022-08-28T07:50:59.942Z,979.42
2022-08-28T07:51:59.941Z,979.46
2022-08-28T07:52:59.925Z,979.43
2022-08-28T07:53:59.911Z,979.45
2022-08-28T07:54:59.913Z,979.46
2022-08-28T07:55:59.883Z,979.48
2022-08-28T07:56:59.873Z,979.48
2022-08-28T07:57:59.856Z,979.53
2022-08-28T07:58:59.861Z,979.48
2022-08-28T07:59:59.847Z,979.53
2022-08-28T08:00:59.825Z,979.56
2022-08-28T08:01:59.804Z,979.49
2022-08-28T08:02:59.863Z,979.55
2022-08-28T08:04:01.657Z,979.55
2022-08-28T08:04:59.776Z,979.50
2022-08-28T08:05:59.761Z,979.57
2022-08-28T08:06:59.748Z,979.62
2022-08-28T08:07:59.732Z,979.60
2022-08-28T08:08:59.729Z,979.59
2022-08-28T08:09:59.718Z,979.60
2022-08-28T08:10:59.708Z,979.60
2022-08-28T08:11:59.684Z,979.62
2022-08-28T08:12:59.668Z,979.59
2022-08-28T08:13:59.660Z,979.60
2022-08-28T08:14:59.659Z,979.59
2022-08-28T08:15:59.698Z,979.59
2022-08-28T08:16:59.621Z,979.58
2022-08-28T08:17:59.615Z,979.58
2022-08-28T08:19:00.592Z,979.60
2022-08-28T08:19:59.590Z,979.64
2022-08-28T08:20:59.581Z,979.62
2022-08-28T08:21:59.550Z,979.64
2022-08-28T08:22:59.543Z,979.63
2022-08-28T08:23:59.532Z,979.66
2022-08-28T08:24:59.530Z,979.65
2022-08-28T08:25:59.501Z,979.65
2022-08-28T08:27:00.640Z,979.67
2022-08-28T08:27:59.470Z,979.65
2022-08-28T08:28:59.477Z,979.63
2022-08-28T08:29:59.464Z,979.72
2022-08-28T08:30:59.471Z,979.69
2022-08-28T08:31:59.431Z,979.71
2022-08-28T08:32:59.414Z,979.71
2022-08-28T08:33:59.393Z,979.75
2022-08-28T08:34:59.416Z,979.74
2022-08-28T08:35:59.371Z,979.75
2022-08-28T08:36:59.376Z,979.75
2022-08-28T08:38:02.768Z,979.76
2022-08-28T08:39:00.359Z,979.80
2022-08-28T08:39:59.355Z,979.82
2022-08-28T08:40:59.340Z,979.81
2022-08-28T08:41:59.305Z,979.76
2022-08-28T08:42:59.293Z,979.79
2022-08-28T08:43:59.277Z,979.77
2022-08-28T08:44:59.277Z,979.74
2022-08-28T08:45:59.308Z,979.84
2022-08-28T08:46:59.238Z,979.85
2022-08-28T08:47:59.227Z,979.79
2022-08-28T08:48:59.227Z,979.81
2022-08-28T08:50:00.207Z,979.81
2022-08-28T08:50:59.198Z,979.81
2022-08-28T08:51:59.187Z,979.80
2022-08-28T08:52:59.172Z,979.80
2022-08-28T08:53:59.158Z,979.82
2022-08-28T08:54:59.503Z,979.85
2022-08-28T08:56:00.135Z,979.87
2022-08-28T08:56:59.112Z,979.91
2022-08-28T08:57:59.090Z,979.91
2022-08-28T08:58:59.090Z,979.89
2022-08-28T08:59:59.099Z,979.92
2022-08-28T09:00:59.072Z,979.90
2022-08-28T09:01:59.114Z,979.99
2022-08-28T09:02:59.075Z,979.94
2022-08-28T09:03:59.114Z,979.89
2022-08-28T09:04:59.021Z,979.92
2022-08-28T09:05:59.016Z,979.89
2022-08-28T09:06:58.992Z,979.91
2022-08-28T09:07:58.971Z,979.91
2022-08-28T09:08:58.962Z,980.01
2022-08-28T09:09:58.952Z,979.93
2022-08-28T09:10:58.973Z,979.88
2022-08-28T09:11:58.932Z,979.98
2022-08-28T09:12:58.911Z,979.97
2022-08-28T09:13:58.893Z,979.96
2022-08-28T09:14:58.905Z,979.93
2022-08-28T09:15:58.919Z,979.87
2022-08-28T09:16:59.857Z,979.94
2022-08-28T09:17:58.835Z,979.89
2022-08-28T09:18:58.844Z,979.93
2022-08-28T09:19:58.834Z,979.87
2022-08-28T09:20:59.809Z,979.90
2022-08-28T09:21:59.787Z,979.91
2022-08-28T09:22:58.774Z,979.91
2022-08-28T09:23:58.775Z,979.91
2022-08-28T09:24:58.747Z,979.88
2022-08-28T09:26:01.645Z,979.95
2022-08-28T09:26:58.717Z,979.94
2022-08-28T09:27:58.708Z,979.92
2022-08-28T09:28:58.706Z,979.86
2022-08-28T09:29:58.676Z,979.92
2022-08-28T09:30:58.734Z,979.92
2022-08-28T09:31:59.647Z,979.87
2022-08-28T09:32:58.637Z,979.87
2022-08-28T09:33:58.643Z,979.80
2022-08-28T09:34:58.619Z,979.90
2022-08-28T09:35:58.600Z,979.85
2022-08-28T09:36:59.587Z,979.78
2022-08-28T09:37:58.582Z,979.83
2022-08-28T09:38:58.570Z,979.90
2022-08-28T09:39:58.583Z,979.92
2022-08-28T09:40:58.536Z,979.88
2022-08-28T09:41:58.532Z,979.88
2022-08-28T09:42:58.516Z,979.90
2022-08-28T09:43:58.507Z,979.85
2022-08-28T09:44:59.771Z,979.83
2022-08-28T09:45:59.514Z,979.84
2022-08-28T09:46:58.444Z,979.84
2022-08-28T10:04:16.753Z,979.95
2022-08-28T10:05:16.670Z,979.91
2022-08-28T10:06:16.617Z,979.92
2022-08-28T10:07:16.625Z,979.97
2022-08-28T10:08:17.602Z,979.95
2022-08-28T10:09:16.610Z,979.97
2022-08-28T10:10:17.216Z,979.93
2022-08-28T10:11:16.563Z,979.86
2022-08-28T10:12:16.543Z,979.93
2022-08-28T10:13:17.539Z,979.81
2022-08-28T10:14:16.538Z,979.88
2022-08-28T10:15:16.548Z,979.86
2022-08-28T10:16:16.689Z,979.89
2022-08-28T10:17:24.011Z,979.84
2022-08-28T10:18:16.463Z,979.85
2022-08-28T10:19:16.463Z,979.88
2022-08-28T10:20:16.463Z,979.90
2022-08-28T10:21:16.453Z,979.84
2022-08-28T10:22:16.418Z,979.86
2022-08-28T10:23:17.789Z,979.84
2022-08-28T10:24:16.403Z,979.80
2022-08-28T10:25:17.404Z,979.79
2022-08-28T10:26:16.376Z,979.75
2022-08-28T10:27:16.364Z,979.80
2022-08-28T10:28:16.346Z,979.78
2022-08-28T10:29:16.325Z,979.78
2022-08-28T10:30:16.355Z,979.86
2022-08-28T10:31:16.402Z,979.80
2022-08-28T10:32:16.286Z,979.80
2022-08-28T10:33:16.288Z,979.79
2022-08-28T10:34:16.267Z,979.78
2022-08-28T10:35:16.268Z,979.84
2022-08-28T10:36:27.351Z,979.80
2022-08-28T10:37:17.230Z,979.83
2022-08-28T10:38:16.219Z,979.81
2022-08-28T10:39:16.199Z,979.77
2022-08-28T10:40:16.266Z,979.80
2022-08-28T10:41:16.198Z,979.78
2022-08-28T10:42:16.178Z,979.77
2022-08-28T10:43:16.152Z,979.79
2022-08-28T10:44:16.149Z,979.73
2022-08-28T10:45:16.127Z,979.75
2022-08-28T10:46:16.184Z,979.80
2022-08-28T10:47:16.110Z,979.81
2022-08-28T10:48:16.099Z,979.80
2022-08-28T10:49:16.076Z,979.74
2022-08-28T10:50:16.051Z,979.80
2022-08-28T10:51:16.059Z,979.79
2022-08-28T10:52:16.051Z,979.80
2022-08-28T10:53:16.039Z,979.77
2022-08-28T10:54:17.030Z,979.75
2022-08-28T10:55:16.016Z,979.80
2022-08-28T10:56:15.981Z,979.81
2022-08-28T10:57:15.973Z,979.79
2022-08-28T10:58:24.783Z,979.81
2022-08-28T10:59:16.963Z,979.76
2022-08-28T11:00:15.932Z,979.80
2022-08-28T11:01:15.993Z,979.82
2022-08-28T11:02:15.943Z,979.83
2022-08-28T11:03:33.565Z,979.83
2022-08-28T11:04:23.528Z,979.81
2022-08-28T11:05:16.885Z,979.85
2022-08-28T11:06:15.855Z,979.88
2022-08-28T11:07:15.836Z,979.93
2022-08-28T11:08:15.816Z,979.95
2022-08-28T11:09:15.813Z,979.91
2022-08-28T11:10:15.805Z,979.90
2022-08-28T11:11:15.797Z,979.94
2022-08-28T11:12:15.777Z,979.91
2022-08-28T11:13:15.803Z,979.94
2022-08-28T11:14:15.737Z,979.92
2022-08-28T11:15:15.738Z,979.88
2022-08-28T11:16:15.734Z,979.91
2022-08-28T11:17:15.721Z,979.94
2022-08-28T11:18:15.705Z,979.91
2022-08-28T11:19:15.683Z,979.89
2022-08-28T11:20:15.693Z,979.89
2022-08-28T11:21:15.656Z,979.82
2022-08-28T11:22:15.627Z,979.86
2022-08-28T11:23:15.631Z,979.81
2022-08-28T11:24:15.632Z,979.88
2022-08-28T11:25:15.613Z,979.86
2022-08-28T11:26:15.582Z,979.85
2022-08-28T11:27:16.597Z,979.84
2022-08-28T11:28:15.553Z,979.82
2022-08-28T11:29:15.561Z,979.87
2022-08-28T11:30:15.554Z,979.86
2022-08-28T11:31:28.727Z,979.84
2022-08-28T11:32:16.518Z,979.84
2022-08-28T11:33:15.499Z,979.87
2022-08-28T11:34:15.482Z,979.90
2022-08-28T11:35:15.470Z,979.83
2022-08-28T11:36:15.463Z,979.92
2022-08-28T11:37:15.460Z,979.93
2022-08-28T11:38:18.422Z,979.99
2022-08-28T11:39:15.422Z,979.98
2022-08-28T11:40:15.546Z,979.87
2022-08-28T11:41:15.440Z,979.86
2022-08-28T11:42:15.374Z,979.93
2022-08-28T11:43:16.166Z,979.90
2022-08-28T11:44:15.355Z,979.89
2022-08-28T11:45:15.367Z,979.86
2022-08-28T11:46:15.361Z,979.87
2022-08-28T11:47:15.328Z,979.86
2022-08-28T11:48:15.310Z,979.81
2022-08-28T11:49:15.278Z,979.87
2022-08-28T11:50:15.288Z,979.79
2022-08-28T11:51:16.262Z,979.79
2022-08-28T11:52:15.235Z,979.80
2022-08-28T11:53:15.288Z,979.82
2022-08-28T11:54:15.219Z,979.85
2022-08-28T11:55:16.229Z,979.89
2022-08-28T11:56:28.287Z,979.81
2022-08-28T11:57:16.180Z,979.86
2022-08-28T11:58:45.471Z,979.92
2022-08-28T11:59:45.442Z,979.87
2022-08-28T12:00:45.453Z,979.89
2022-08-28T12:01:45.456Z,979.84
2022-08-28T12:02:45.479Z,979.85
2022-08-28T12:03:45.403Z,979.82
2022-08-28T12:04:45.449Z,979.81
2022-08-28T12:05:45.613Z,979.91
2022-08-28T12:06:45.496Z,979.88
2022-08-28T12:07:45.667Z,979.91
2022-08-28T12:12:04.248Z,979.88
2022-08-28T12:12:43.242Z,979.92
2022-08-28T12:13:50.687Z,979.85
2022-08-28T12:14:45.208Z,979.87
2022-08-28T12:15:43.288Z,979.87
2022-08-28T12:16:43.187Z,979.86
2022-08-28T12:17:43.137Z,979.86
2022-08-28T12:18:43.209Z,979.80
2022-08-28T12:19:55.204Z,979.78
2022-08-28T12:20:44.167Z,979.84
2022-08-28T12:21:43.108Z,979.82
2022-08-28T12:22:43.124Z,979.85
2022-08-28T12:23:43.096Z,979.80
2022-08-28T12:24:43.099Z,979.81
2022-08-28T12:25:46.207Z,979.79
2022-08-28T12:26:43.151Z,979.76
2022-08-28T12:27:44.041Z,979.77
2022-08-28T12:28:43.032Z,979.77
2022-08-28T12:29:43.053Z,979.80
2022-08-28T12:30:44.019Z,979.76
2022-08-28T12:31:45.040Z,979.74
2022-08-28T12:32:42.976Z,979.74
2022-08-28T12:33:42.922Z,979.74
2022-08-28T12:34:42.981Z,979.81
2022-08-28T12:35:43.883Z,979.76
2022-08-28T12:36:43.922Z,979.77
2022-08-28T12:37:52.215Z,979.76
2022-08-28T12:38:44.071Z,979.75
2022-08-28T12:39:42.934Z,979.81
2022-08-28T12:40:42.979Z,979.72
2022-08-28T12:41:42.823Z,979.76
2022-08-28T12:42:42.826Z,979.73
2022-08-28T12:43:46.807Z,979.75
2022-08-28T12:44:42.765Z,979.75
2022-08-28T12:45:42.834Z,979.75
2022-08-28T12:46:42.784Z,979.74
2022-08-28T12:47:42.756Z,979.74
2022-08-28T12:48:42.756Z,979.70
2022-08-28T12:49:42.724Z,979.78
2022-08-28T12:50:42.954Z,979.68
2022-08-28T12:51:43.203Z,979.70
2022-08-28T12:52:43.339Z,979.72
2022-08-28T12:53:42.657Z,979.72
2022-08-28T12:54:42.690Z,979.68
2022-08-28T12:55:42.669Z,979.68
2022-08-28T12:56:42.617Z,979.70
2022-08-28T12:57:42.623Z,979.74
2022-08-28T12:58:42.622Z,979.67
2022-08-28T12:59:42.639Z,979.70
2022-08-28T13:00:42.578Z,979.65
2022-08-28T13:01:42.867Z,979.64
2022-08-28T13:02:46.416Z,979.70
2022-08-28T13:03:43.531Z,979.64